VTBS/BKK METAR and TAF weather

Enter ICAO airport designator
Station Type Date Time Source
VTBS METAR 2021/01/27 13:30 UTC NOAA

VTBS 271330Z 23005KT 8000 FEW030 27/24 Q1011 NOSIG


Station Type Date Time Source
VTBS Decoded METAR 2021/01/27 13:30 UTC NOAA

Chon Buri, Thailand (VTBS) 13-22N 100-59E 2M
Jan 27, 2021 - 08:30 AM EST / 2021.01.27 1330 UTC
Wind: from the SW (230 degrees) at 6 MPH (5 KT):0
Visibility: 4 mile(s):0
Sky conditions: mostly clear
Temperature: 80 F (27 C)
Dew Point: 75 F (24 C)
Relative Humidity: 83%
Pressure (altimeter): 29.85 in. Hg (1011 hPa)
ob: VTBS 271330Z 23005KT 8000 FEW030 27/24 Q1011 NOSIG
cycle: 13

Station Type Date Time Source
VTBS TAF 2021/01/27 12:00 UTC NOAA

TAF VTBS 271100Z 2712/2818 14005KT 9000 FEW020
BECMG 2718/2720 07008KT

Example: see airport list